Tinker Air Force Base
KTIK : now visible

Airfield :











YOU CAN JOIN US ON...

 
LOGIN :

Register | Disclaimer

   EN    FR    IT 

 









Legend :    VFR   Marginal VFR   IFR   Intensive IFR   Very Intensive IFR
Visi :
Ceiling :
>= 8 km
>= 3000ft
5 to 8 km
1000 to 3000 ft
1500m to 5 km
500 to 1000 ft
800 to 1500m
200 to 500 ft
< 800m
< 200 ft
Symbols :   Thunderstorms  Fog  Heavy snow  Heavy precipitations  Wind > 20 kt







- Airport Elevation : 1291 ft


KTIK - Tinker Air Force Base

CURRENT METAR :
  • 210456Z AUTO 08010KT 10SM CLR 02/M01 A3000 RMK AO2 SLPNO T00181009

EXPIRED METARs :
  • 210356Z AUTO 07008KT 10SM CLR 03/M02 A2997 RMK AO2 SLPNO T00271017
  • 210256Z AUTO 06008KT 10SM CLR 04/M03 A2996 RMK AO2 SLPNO T00381030 52025

TAF TAF KTIK
Valid from the 21 at 02:00 until the 22 at 08:00 UTC


210200Z 2102/2208 12009KT 9999 SCT140 BKN170 QNH2991INS
BECMG 2117/2118 14010G15KT 9999 FEW130 SCT190 QNH2997INS
BECMG 2202/2203 13006KT 9999 FEW030 QNH3002INS TX15/2121Z TN03/2112Z
KZFW FIR / North America



MET'MAP, your aeronautical weather chart ! - Copyright ORBIFLY December 2007 - Disclaimer

ORBIFLY MET'MAP TEAM :

Programming & Development : Alexandra Zaïnal
Concept & Development : Baudouin d'Aumeries
Co-Development & Prog : Marc-Olivier Méhu
Technical & hardware support : Manuel Goepfert

Contact : metmap@orbifly.com




SOURCES & CREDITS :

   NOAA       Earth
Advisory